PWSweather.com
Personal Weather Stations
Station Observations
THAIWX
Pa Daet, Chiang MaiTH 50100

Pa DaetChiang MaiTH 50100

Lat: 18.766158, Lon: 98.97553

Elevation: 1007

Station Type: LaCrosse WS2315 (modified)

http://www.ThaiWx.yolasite.com/

High Low Average
Temperature 92.3°F33.5°C 79.7°F26.5°C 87.4°F30.8°C
Dew Point 75.5°F24.2°C 71.4°F21.9°C 73.8°F23.2°C
Winds 6.7 mph 10.8 kmh Calm Calm 3.0 mph SSW4.8 kmh SSW
Wind Gusts 12.8 mph20.6 kmh -- 6.0 mph9.7 kmh
Humidity 80% 55% 65%
Pressure 29.79 in1008.8 mb 29.63 in1003.4 mb -
Precipitation 0.00 in0.0 mm - -
Hour Temp Dew Point Humidity Winds Wind Gusts Pressure Precip Precip Rate Daily Precip Total
12:04 AM 80.4°F26.9°C 74.1°F23.4°C 81% Calm Calm -- 29.78 in1008.5 mb 0.00 in0.0 mm 0.00 in0.0 mm 0.00 in0.0 mm
12:09 AM 80.4°F26.9°C 74.1°F23.4°C 81% Calm Calm -- 29.77 in1008.1 mb 0.00 in0.0 mm 0.00 in0.0 mm 0.00 in0.0 mm
12:14 AM 80.4°F26.9°C 74.1°F23.4°C 81% Calm Calm -- 29.77 in1008.1 mb 0.00 in0.0 mm 0.00 in0.0 mm 0.00 in0.0 mm
12:19 AM 80.2°F26.8°C 74.3°F23.5°C 82% Calm Calm -- 29.77 in1008.1 mb 0.00 in0.0 mm 0.00 in0.0 mm 0.00 in0.0 mm
12:24 AM 80.2°F26.8°C 74.3°F23.5°C 82% Calm Calm -- 29.77 in1008.1 mb 0.00 in0.0 mm 0.00 in0.0 mm 0.00 in0.0 mm
12:29 AM 80.1°F26.7°C 74.1°F23.4°C 82% Calm Calm -- 29.77 in1008.1 mb 0.00 in0.0 mm 0.00 in0.0 mm 0.00 in0.0 mm
12:34 AM 80.1°F26.7°C 74.1°F23.4°C 82% Calm Calm -- 29.77 in1008.1 mb 0.00 in0.0 mm 0.00 in0.0 mm 0.00 in0.0 mm
12:39 AM 79.9°F26.6°C 73.9°F23.3°C 82% 1.6 mph NNW2.6 kmh NNW 1.6 mph2.6 kmh 29.77 in1008.1 mb 0.00 in0.0 mm 0.00 in0.0 mm 0.00 in0.0 mm
12:44 AM 79.9°F26.6°C 73.9°F23.3°C 82% Calm Calm 1.6 mph2.6 kmh 29.77 in1008.1 mb 0.00 in0.0 mm 0.00 in0.0 mm 0.00 in0.0 mm
12:49 AM 79.9°F26.6°C 73.9°F23.3°C 82% Calm Calm 1.6 mph2.6 kmh 29.76 in1007.8 mb 0.00 in0.0 mm 0.00 in0.0 mm 0.00 in0.0 mm
12:54 AM 80.2°F26.8°C 74.3°F23.5°C 82% Calm Calm -- 29.76 in1007.8 mb 0.00 in0.0 mm 0.00 in0.0 mm 0.00 in0.0 mm
12:59 AM 79.9°F26.6°C 73.9°F23.3°C 82% Calm Calm -- 29.76 in1007.8 mb 0.00 in0.0 mm 0.00 in0.0 mm 0.00 in0.0 mm
01:04 AM 80.2°F26.8°C 74.3°F23.5°C 82% Calm Calm -- 29.76 in1007.8 mb 0.00 in0.0 mm 0.00 in0.0 mm 0.00 in0.0 mm
01:09 AM 80.1°F26.7°C 74.1°F23.4°C 82% Calm Calm -- 29.76 in1007.8 mb 0.00 in0.0 mm 0.00 in0.0 mm 0.00 in0.0 mm
01:14 AM 80.2°F26.8°C 74.3°F23.5°C 82% Calm Calm -- 29.76 in1007.8 mb 0.00 in0.0 mm 0.00 in0.0 mm 0.00 in0.0 mm
01:19 AM 79.9°F26.6°C 73.9°F23.3°C 82% Calm Calm -- 29.76 in1007.8 mb 0.00 in0.0 mm 0.00 in0.0 mm 0.00 in0.0 mm
01:24 AM 80.1°F26.7°C 74.1°F23.4°C 82% Calm Calm -- 29.76 in1007.8 mb 0.00 in0.0 mm 0.00 in0.0 mm 0.00 in0.0 mm
01:30 AM 79.9°F26.6°C 73.9°F23.3°C 82% Calm Calm -- 29.76 in1007.8 mb 0.00 in0.0 mm 0.00 in0.0 mm 0.00 in0.0 mm
01:35 AM 79.5°F26.4°C 73.6°F23.1°C 82% Calm Calm -- 29.76 in1007.8 mb 0.00 in0.0 mm 0.00 in0.0 mm 0.00 in0.0 mm
01:40 AM 79.7°F26.5°C 73.7°F23.2°C 82% Calm Calm -- 29.76 in1007.8 mb 0.00 in0.0 mm 0.00 in0.0 mm 0.00 in0.0 mm
01:45 AM 79.5°F26.4°C 73.6°F23.1°C 82% Calm Calm -- 29.75 in1007.5 mb 0.00 in0.0 mm 0.00 in0.0 mm 0.00 in0.0 mm
01:50 AM 79.2°F26.2°C 73.6°F23.1°C 83% Calm Calm -- 29.75 in1007.5 mb 0.00 in0.0 mm 0.00 in0.0 mm 0.00 in0.0 mm
01:55 AM 79.0°F26.1°C 73.4°F23.0°C 83% Calm Calm -- 29.75 in1007.5 mb 0.00 in0.0 mm 0.00 in0.0 mm 0.00 in0.0 mm
02:00 AM 79.0°F26.1°C 73.4°F23.0°C 83% Calm Calm -- 29.75 in1007.5 mb 0.00 in0.0 mm 0.00 in0.0 mm 0.00 in0.0 mm
02:05 AM 79.2°F26.2°C 73.6°F23.1°C 83% Calm Calm -- 29.75 in1007.5 mb 0.00 in0.0 mm 0.00 in0.0 mm 0.00 in0.0 mm
02:10 AM 79.2°F26.2°C 73.6°F23.1°C 83% Calm Calm -- 29.75 in1007.5 mb 0.00 in0.0 mm 0.00 in0.0 mm 0.00 in0.0 mm
02:15 AM 79.3°F26.3°C 73.7°F23.2°C 83% Calm Calm -- 29.75 in1007.5 mb 0.00 in0.0 mm 0.00 in0.0 mm 0.00 in0.0 mm
02:20 AM 79.2°F26.2°C 73.6°F23.1°C 83% Calm Calm -- 29.75 in1007.5 mb 0.00 in0.0 mm 0.00 in0.0 mm 0.00 in0.0 mm
02:25 AM 79.3°F26.3°C 73.7°F23.2°C 83% Calm Calm -- 29.75 in1007.5 mb 0.00 in0.0 mm 0.00 in0.0 mm 0.00 in0.0 mm
02:30 AM 79.3°F26.3°C 73.7°F23.2°C 83% Calm Calm -- 29.75 in1007.5 mb 0.00 in0.0 mm 0.00 in0.0 mm 0.00 in0.0 mm
02:35 AM 79.2°F26.2°C 73.6°F23.1°C 83% Calm Calm -- 29.75 in1007.5 mb 0.00 in0.0 mm 0.00 in0.0 mm 0.00 in0.0 mm
02:40 AM 79.0°F26.1°C 73.4°F23.0°C 83% Calm Calm -- 29.75 in1007.5 mb 0.00 in0.0 mm 0.00 in0.0 mm 0.00 in0.0 mm
02:45 AM 79.2°F26.2°C 73.6°F23.1°C 83% Calm Calm -- 29.74 in1007.1 mb 0.00 in0.0 mm 0.00 in0.0 mm 0.00 in0.0 mm
02:50 AM 79.2°F26.2°C 73.6°F23.1°C 83% 2.0 mph SE3.2 kmh SE 2.0 mph3.2 kmh 29.75 in1007.5 mb 0.00 in0.0 mm 0.00 in0.0 mm 0.00 in0.0 mm
02:55 AM 79.2°F26.2°C 73.6°F23.1°C 83% 1.3 mph NE2.1 kmh NE 2.9 mph4.7 kmh 29.75 in1007.5 mb 0.00 in0.0 mm 0.00 in0.0 mm 0.00 in0.0 mm
03:00 AM 79.3°F26.3°C 73.7°F23.2°C 83% Calm Calm 2.9 mph4.7 kmh 29.75 in1007.5 mb 0.00 in0.0 mm 0.00 in0.0 mm 0.00 in0.0 mm
03:05 AM 79.3°F26.3°C 73.7°F23.2°C 83% 1.7 mph SE2.7 kmh SE 2.0 mph3.2 kmh 29.75 in1007.5 mb 0.00 in0.0 mm 0.00 in0.0 mm 0.00 in0.0 mm
03:10 AM 79.3°F26.3°C 73.7°F23.2°C 83% 2.0 mph NNE3.2 kmh NNE 2.0 mph3.2 kmh 29.75 in1007.5 mb 0.00 in0.0 mm 0.00 in0.0 mm 0.00 in0.0 mm
03:15 AM 79.5°F26.4°C 73.9°F23.3°C 83% Calm Calm 2.0 mph3.2 kmh 29.75 in1007.5 mb 0.00 in0.0 mm 0.00 in0.0 mm 0.00 in0.0 mm
03:20 AM 79.5°F26.4°C 73.9°F23.3°C 83% Calm Calm -- 29.74 in1007.1 mb 0.00 in0.0 mm 0.00 in0.0 mm 0.00 in0.0 mm
03:25 AM 79.3°F26.3°C 73.7°F23.2°C 83% Calm Calm -- 29.75 in1007.5 mb 0.00 in0.0 mm 0.00 in0.0 mm 0.00 in0.0 mm
03:30 AM 79.0°F26.1°C 73.4°F23.0°C 83% Calm Calm -- 29.75 in1007.5 mb 0.00 in0.0 mm 0.00 in0.0 mm 0.00 in0.0 mm
03:35 AM 79.0°F26.1°C 73.4°F23.0°C 83% Calm Calm -- 29.75 in1007.5 mb 0.00 in0.0 mm 0.00 in0.0 mm 0.00 in0.0 mm
03:40 AM 79.2°F26.2°C 73.6°F23.1°C 83% Calm Calm -- 29.75 in1007.5 mb 0.00 in0.0 mm 0.00 in0.0 mm 0.00 in0.0 mm
03:45 AM 79.3°F26.3°C 73.7°F23.2°C 83% Calm Calm -- 29.75 in1007.5 mb 0.00 in0.0 mm 0.00 in0.0 mm 0.00 in0.0 mm
03:50 AM 79.3°F26.3°C 73.7°F23.2°C 83% Calm Calm -- 29.75 in1007.5 mb 0.00 in0.0 mm 0.00 in0.0 mm 0.00 in0.0 mm
03:55 AM 79.0°F26.1°C 73.4°F23.0°C 83% Calm Calm -- 29.75 in1007.5 mb 0.00 in0.0 mm 0.00 in0.0 mm 0.00 in0.0 mm
04:01 AM 79.0°F26.1°C 73.4°F23.0°C 83% Calm Calm -- 29.75 in1007.5 mb 0.00 in0.0 mm 0.00 in0.0 mm 0.00 in0.0 mm
04:06 AM 79.3°F26.3°C 73.7°F23.2°C 83% Calm Calm -- 29.75 in1007.5 mb 0.00 in0.0 mm 0.00 in0.0 mm 0.00 in0.0 mm
04:11 AM 79.3°F26.3°C 73.7°F23.2°C 83% Calm Calm -- 29.75 in1007.5 mb 0.00 in0.0 mm 0.00 in0.0 mm 0.00 in0.0 mm
04:16 AM 79.2°F26.2°C 73.6°F23.1°C 83% Calm Calm -- 29.75 in1007.5 mb 0.00 in0.0 mm 0.00 in0.0 mm 0.00 in0.0 mm
04:21 AM 79.3°F26.3°C 73.7°F23.2°C 83% Calm Calm -- 29.75 in1007.5 mb 0.00 in0.0 mm 0.00 in0.0 mm 0.00 in0.0 mm
04:26 AM 79.2°F26.2°C 73.6°F23.1°C 83% Calm Calm 1.3 mph2.1 kmh 29.75 in1007.5 mb 0.00 in0.0 mm 0.00 in0.0 mm 0.00 in0.0 mm
04:31 AM 79.2°F26.2°C 73.6°F23.1°C 83% 1.8 mph SE2.9 kmh SE 1.8 mph2.9 kmh 29.74 in1007.1 mb 0.00 in0.0 mm 0.00 in0.0 mm 0.00 in0.0 mm
04:36 AM 79.2°F26.2°C 73.2°F22.9°C 82% Calm Calm 1.8 mph2.9 kmh 29.75 in1007.5 mb 0.00 in0.0 mm 0.00 in0.0 mm 0.00 in0.0 mm
04:41 AM 79.2°F26.2°C 73.6°F23.1°C 83% Calm Calm -- 29.75 in1007.5 mb 0.00 in0.0 mm 0.00 in0.0 mm 0.00 in0.0 mm
04:46 AM 79.3°F26.3°C 73.4°F23.0°C 82% Calm Calm 2.2 mph3.5 kmh 29.75 in1007.5 mb 0.00 in0.0 mm 0.00 in0.0 mm 0.00 in0.0 mm
04:51 AM 79.3°F26.3°C 73.4°F23.0°C 82% Calm Calm 2.2 mph3.5 kmh 29.75 in1007.5 mb 0.00 in0.0 mm 0.00 in0.0 mm 0.00 in0.0 mm
04:56 AM 79.3°F26.3°C 73.4°F23.0°C 82% Calm Calm 2.2 mph3.5 kmh 29.75 in1007.5 mb 0.00 in0.0 mm 0.00 in0.0 mm 0.00 in0.0 mm
05:01 AM 79.3°F26.3°C 73.4°F23.0°C 82% Calm Calm 2.2 mph3.5 kmh 29.75 in1007.5 mb 0.00 in0.0 mm 0.00 in0.0 mm 0.00 in0.0 mm
05:06 AM 79.3°F26.3°C 73.4°F23.0°C 82% Calm Calm -- 29.75 in1007.5 mb 0.00 in0.0 mm 0.00 in0.0 mm 0.00 in0.0 mm
05:11 AM 79.3°F26.3°C 73.4°F23.0°C 82% Calm Calm -- 29.76 in1007.8 mb 0.00 in0.0 mm 0.00 in0.0 mm 0.00 in0.0 mm
05:16 AM 79.3°F26.3°C 73.4°F23.0°C 82% Calm Calm -- 29.76 in1007.8 mb 0.00 in0.0 mm 0.00 in0.0 mm 0.00 in0.0 mm
05:21 AM 79.3°F26.3°C 73.4°F23.0°C 82% Calm Calm -- 29.76 in1007.8 mb 0.00 in0.0 mm 0.00 in0.0 mm 0.00 in0.0 mm
05:26 AM 79.3°F26.3°C 73.4°F23.0°C 82% Calm Calm -- 29.76 in1007.8 mb 0.00 in0.0 mm 0.00 in0.0 mm 0.00 in0.0 mm
05:31 AM 79.3°F26.3°C 73.0°F22.8°C 81% Calm Calm -- 29.76 in1007.8 mb 0.00 in0.0 mm 0.00 in0.0 mm 0.00 in0.0 mm
05:36 AM 79.3°F26.3°C 73.0°F22.8°C 81% Calm Calm -- 29.76 in1007.8 mb 0.00 in0.0 mm 0.00 in0.0 mm 0.00 in0.0 mm
05:41 AM 79.3°F26.3°C 73.0°F22.8°C 81% Calm Calm -- 29.77 in1008.1 mb 0.00 in0.0 mm 0.00 in0.0 mm 0.00 in0.0 mm
05:46 AM 79.3°F26.3°C 73.0°F22.8°C 81% Calm Calm -- 29.77 in1008.1 mb 0.00 in0.0 mm 0.00 in0.0 mm 0.00 in0.0 mm
05:51 AM 79.3°F26.3°C 72.7°F22.6°C 80% Calm Calm -- 29.76 in1007.8 mb 0.00 in0.0 mm 0.00 in0.0 mm 0.00 in0.0 mm
05:56 AM 79.3°F26.3°C 72.7°F22.6°C 80% Calm Calm -- 29.77 in1008.1 mb 0.00 in0.0 mm 0.00 in0.0 mm 0.00 in0.0 mm
06:01 AM 79.3°F26.3°C 72.7°F22.6°C 80% Calm Calm -- 29.76 in1007.8 mb 0.00 in0.0 mm 0.00 in0.0 mm 0.00 in0.0 mm
06:06 AM 79.3°F26.3°C 72.7°F22.6°C 80% Calm Calm -- 29.77 in1008.1 mb 0.00 in0.0 mm 0.00 in0.0 mm 0.00 in0.0 mm
06:12 AM 79.3°F26.3°C 72.7°F22.6°C 80% Calm Calm -- 29.77 in1008.1 mb 0.00 in0.0 mm 0.00 in0.0 mm 0.00 in0.0 mm
06:16 AM 79.3°F26.3°C 73.0°F22.8°C 81% Calm Calm -- 29.77 in1008.1 mb 0.00 in0.0 mm 0.00 in0.0 mm 0.00 in0.0 mm
06:22 AM 79.3°F26.3°C 72.7°F22.6°C 80% Calm Calm -- 29.77 in1008.1 mb 0.00 in0.0 mm 0.00 in0.0 mm 0.00 in0.0 mm
06:27 AM 79.3°F26.3°C 73.0°F22.8°C 81% Calm Calm -- 29.78 in1008.5 mb 0.00 in0.0 mm 0.00 in0.0 mm 0.00 in0.0 mm
06:32 AM 79.5°F26.4°C 73.2°F22.9°C 81% Calm Calm -- 29.77 in1008.1 mb 0.00 in0.0 mm 0.00 in0.0 mm 0.00 in0.0 mm
06:37 AM 79.5°F26.4°C 72.9°F22.7°C 80% Calm Calm -- 29.77 in1008.1 mb 0.00 in0.0 mm 0.00 in0.0 mm 0.00 in0.0 mm
06:42 AM 79.5°F26.4°C 73.2°F22.9°C 81% Calm Calm -- 29.77 in1008.1 mb 0.00 in0.0 mm 0.00 in0.0 mm 0.00 in0.0 mm
06:47 AM 79.7°F26.5°C 73.4°F23.0°C 81% Calm Calm -- 29.78 in1008.5 mb 0.00 in0.0 mm 0.00 in0.0 mm 0.00 in0.0 mm
06:52 AM 79.7°F26.5°C 73.0°F22.8°C 80% Calm Calm -- 29.78 in1008.5 mb 0.00 in0.0 mm 0.00 in0.0 mm 0.00 in0.0 mm
06:57 AM 79.7°F26.5°C 73.0°F22.8°C 80% Calm Calm -- 29.78 in1008.5 mb 0.00 in0.0 mm 0.00 in0.0 mm 0.00 in0.0 mm
07:02 AM 79.7°F26.5°C 73.0°F22.8°C 80% Calm Calm -- 29.78 in1008.5 mb 0.00 in0.0 mm 0.00 in0.0 mm 0.00 in0.0 mm
07:07 AM 79.9°F26.6°C 73.2°F22.9°C 80% Calm Calm -- 29.77 in1008.1 mb 0.00 in0.0 mm 0.00 in0.0 mm 0.00 in0.0 mm
07:12 AM 79.9°F26.6°C 73.2°F22.9°C 80% Calm Calm -- 29.77 in1008.1 mb 0.00 in0.0 mm 0.00 in0.0 mm 0.00 in0.0 mm
07:17 AM 79.9°F26.6°C 72.8°F22.7°C 79% Calm Calm -- 29.78 in1008.5 mb 0.00 in0.0 mm 0.00 in0.0 mm 0.00 in0.0 mm
07:22 AM 79.9°F26.6°C 72.8°F22.7°C 79% Calm Calm -- 29.78 in1008.5 mb 0.00 in0.0 mm 0.00 in0.0 mm 0.00 in0.0 mm
07:27 AM 80.1°F26.7°C 73.0°F22.8°C 79% Calm Calm -- 29.77 in1008.1 mb 0.00 in0.0 mm 0.00 in0.0 mm 0.00 in0.0 mm
07:32 AM 80.2°F26.8°C 73.2°F22.9°C 79% Calm Calm -- 29.78 in1008.5 mb 0.00 in0.0 mm 0.00 in0.0 mm 0.00 in0.0 mm
07:37 AM 80.2°F26.8°C 73.2°F22.9°C 79% Calm Calm -- 29.78 in1008.5 mb 0.00 in0.0 mm 0.00 in0.0 mm 0.00 in0.0 mm
07:42 AM 80.4°F26.9°C 73.4°F23.0°C 79% Calm Calm -- 29.77 in1008.1 mb 0.00 in0.0 mm 0.00 in0.0 mm 0.00 in0.0 mm
07:47 AM 80.4°F26.9°C 73.4°F23.0°C 79% Calm Calm -- 29.77 in1008.1 mb 0.00 in0.0 mm 0.00 in0.0 mm 0.00 in0.0 mm
07:52 AM 80.4°F26.9°C 73.4°F23.0°C 79% Calm Calm -- 29.78 in1008.5 mb 0.00 in0.0 mm 0.00 in0.0 mm 0.00 in0.0 mm
07:57 AM 80.6°F27.0°C 73.5°F23.1°C 79% 1.6 mph NE2.6 kmh NE 1.6 mph2.6 kmh 29.78 in1008.5 mb 0.00 in0.0 mm 0.00 in0.0 mm 0.00 in0.0 mm
08:02 AM 80.8°F27.1°C 73.3°F22.9°C 78% Calm Calm 1.6 mph2.6 kmh 29.78 in1008.5 mb 0.00 in0.0 mm 0.00 in0.0 mm 0.00 in0.0 mm
08:07 AM 81.0°F27.2°C 73.5°F23.1°C 78% Calm Calm -- 29.78 in1008.5 mb 0.00 in0.0 mm 0.00 in0.0 mm 0.00 in0.0 mm
08:12 AM 81.0°F27.2°C 73.5°F23.1°C 78% Calm Calm 2.0 mph3.2 kmh 29.78 in1008.5 mb 0.00 in0.0 mm 0.00 in0.0 mm 0.00 in0.0 mm
08:17 AM 81.3°F27.4°C 73.8°F23.2°C 78% 1.6 mph ESE2.6 kmh ESE 2.0 mph3.2 kmh 29.78 in1008.5 mb 0.00 in0.0 mm 0.00 in0.0 mm 0.00 in0.0 mm
08:22 AM 81.3°F27.4°C 73.8°F23.2°C 78% 2.5 mph ENE4.0 kmh ENE 3.4 mph5.5 kmh 29.79 in1008.8 mb 0.00 in0.0 mm 0.00 in0.0 mm 0.00 in0.0 mm
08:27 AM 81.5°F27.5°C 73.6°F23.1°C 77% 1.1 mph NNE1.8 kmh NNE 3.4 mph5.5 kmh 29.78 in1008.5 mb 0.00 in0.0 mm 0.00 in0.0 mm 0.00 in0.0 mm
08:32 AM 81.7°F27.6°C 73.8°F23.2°C 77% 1.8 mph E2.9 kmh E 2.2 mph3.5 kmh 29.78 in1008.5 mb 0.00 in0.0 mm 0.00 in0.0 mm 0.00 in0.0 mm
08:37 AM 81.7°F27.6°C 73.4°F23.0°C 76% 1.3 mph ESE2.1 kmh ESE 2.2 mph3.5 kmh 29.78 in1008.5 mb 0.00 in0.0 mm 0.00 in0.0 mm 0.00 in0.0 mm
08:42 AM 81.9°F27.7°C 73.6°F23.1°C 76% 1.6 mph SE2.6 kmh SE 3.6 mph5.8 kmh 29.78 in1008.5 mb 0.00 in0.0 mm 0.00 in0.0 mm 0.00 in0.0 mm
08:48 AM 82.0°F27.8°C 73.7°F23.2°C 76% 1.6 mph E2.6 kmh E 3.6 mph5.8 kmh 29.78 in1008.5 mb 0.00 in0.0 mm 0.00 in0.0 mm 0.00 in0.0 mm
08:53 AM 82.0°F27.8°C 73.3°F22.9°C 75% 1.4 mph SE2.3 kmh SE 2.7 mph4.3 kmh 29.79 in1008.8 mb 0.00 in0.0 mm 0.00 in0.0 mm 0.00 in0.0 mm
08:58 AM 82.2°F27.9°C 73.5°F23.1°C 75% 1.6 mph E2.6 kmh E 2.7 mph4.3 kmh 29.78 in1008.5 mb 0.00 in0.0 mm 0.00 in0.0 mm 0.00 in0.0 mm
09:03 AM 82.6°F28.1°C 73.8°F23.2°C 75% 1.6 mph E2.6 kmh E 2.2 mph3.5 kmh 29.79 in1008.8 mb 0.00 in0.0 mm 0.00 in0.0 mm 0.00 in0.0 mm
09:08 AM 82.6°F28.1°C 73.4°F23.0°C 74% 1.9 mph ENE3.1 kmh ENE 3.1 mph5.0 kmh 29.79 in1008.8 mb 0.00 in0.0 mm 0.00 in0.0 mm 0.00 in0.0 mm
09:13 AM 82.8°F28.2°C 73.6°F23.1°C 74% 1.3 mph ENE2.1 kmh ENE 3.1 mph5.0 kmh 29.79 in1008.8 mb 0.00 in0.0 mm 0.00 in0.0 mm 0.00 in0.0 mm
09:18 AM 82.9°F28.3°C 73.8°F23.2°C 74% 1.8 mph S2.9 kmh S 3.1 mph5.0 kmh 29.78 in1008.5 mb 0.00 in0.0 mm 0.00 in0.0 mm 0.00 in0.0 mm
09:23 AM 82.9°F28.3°C 73.4°F23.0°C 73% 1.2 mph SSE1.9 kmh SSE 3.8 mph6.1 kmh 29.78 in1008.5 mb 0.00 in0.0 mm 0.00 in0.0 mm 0.00 in0.0 mm
09:28 AM 82.9°F28.3°C 73.0°F22.8°C 72% 1.9 mph ENE3.1 kmh ENE 3.8 mph6.1 kmh 29.78 in1008.5 mb 0.00 in0.0 mm 0.00 in0.0 mm 0.00 in0.0 mm
09:33 AM 83.1°F28.4°C 73.1°F22.8°C 72% 0.7 mph E1.1 kmh E 2.9 mph4.7 kmh 29.78 in1008.5 mb 0.00 in0.0 mm 0.00 in0.0 mm 0.00 in0.0 mm
09:38 AM 83.3°F28.5°C 73.3°F22.9°C 72% 2.0 mph SSW3.2 kmh SSW 2.5 mph4.0 kmh 29.79 in1008.8 mb 0.00 in0.0 mm 0.00 in0.0 mm 0.00 in0.0 mm
09:43 AM 83.5°F28.6°C 73.5°F23.1°C 72% 1.6 mph S2.6 kmh S 2.5 mph4.0 kmh 29.79 in1008.8 mb 0.00 in0.0 mm 0.00 in0.0 mm 0.00 in0.0 mm
09:48 AM 83.5°F28.6°C 73.5°F23.1°C 72% 2.1 mph SE3.4 kmh SE 3.6 mph5.8 kmh 29.78 in1008.5 mb 0.00 in0.0 mm 0.00 in0.0 mm 0.00 in0.0 mm
09:53 AM 83.8°F28.8°C 73.8°F23.2°C 72% Calm Calm 4.5 mph7.2 kmh 29.78 in1008.5 mb 0.00 in0.0 mm 0.00 in0.0 mm 0.00 in0.0 mm
09:58 AM 84.0°F28.9°C 74.0°F23.3°C 72% 2.7 mph SW4.3 kmh SW 4.9 mph7.9 kmh 29.78 in1008.5 mb 0.00 in0.0 mm 0.00 in0.0 mm 0.00 in0.0 mm
10:03 AM 84.4°F29.1°C 74.0°F23.3°C 71% 2.3 mph SW3.7 kmh SW 4.9 mph7.9 kmh 29.79 in1008.8 mb 0.00 in0.0 mm 0.00 in0.0 mm 0.00 in0.0 mm
10:08 AM 84.4°F29.1°C 73.6°F23.1°C 70% 1.6 mph SSW2.6 kmh SSW 3.8 mph6.1 kmh 29.78 in1008.5 mb 0.00 in0.0 mm 0.00 in0.0 mm 0.00 in0.0 mm
10:13 AM 84.7°F29.3°C 73.5°F23.1°C 69% 1.6 mph SW2.6 kmh SW 3.1 mph5.0 kmh 29.78 in1008.5 mb 0.00 in0.0 mm 0.00 in0.0 mm 0.00 in0.0 mm
10:18 AM 84.9°F29.4°C 73.7°F23.2°C 69% 1.8 mph NW2.9 kmh NW 3.4 mph5.5 kmh 29.77 in1008.1 mb 0.00 in0.0 mm 0.00 in0.0 mm 0.00 in0.0 mm
10:23 AM 84.9°F29.4°C 73.7°F23.2°C 69% 1.3 mph WNW2.1 kmh WNW 3.4 mph5.5 kmh 29.77 in1008.1 mb 0.00 in0.0 mm 0.00 in0.0 mm 0.00 in0.0 mm
10:28 AM 85.3°F29.6°C 73.5°F23.1°C 68% 2.3 mph W3.7 kmh W 2.9 mph4.7 kmh 29.77 in1008.1 mb 0.00 in0.0 mm 0.00 in0.0 mm 0.00 in0.0 mm
10:33 AM 85.6°F29.8°C 74.4°F23.6°C 69% 4.0 mph NE6.4 kmh NE 5.4 mph8.7 kmh 29.77 in1008.1 mb 0.00 in0.0 mm 0.00 in0.0 mm 0.00 in0.0 mm
10:38 AM 85.8°F29.9°C 74.1°F23.4°C 68% 2.5 mph ESE4.0 kmh ESE 5.4 mph8.7 kmh 29.77 in1008.1 mb 0.00 in0.0 mm 0.00 in0.0 mm 0.00 in0.0 mm
10:43 AM 86.2°F30.1°C 74.4°F23.6°C 68% 1.7 mph S2.7 kmh S 6.0 mph9.7 kmh 29.77 in1008.1 mb 0.00 in0.0 mm 0.00 in0.0 mm 0.00 in0.0 mm
10:48 AM 86.2°F30.1°C 74.0°F23.3°C 67% 1.1 mph SSE1.8 kmh SSE 6.0 mph9.7 kmh 29.77 in1008.1 mb 0.00 in0.0 mm 0.00 in0.0 mm 0.00 in0.0 mm
10:53 AM 86.4°F30.2°C 74.1°F23.4°C 67% Calm Calm 2.9 mph4.7 kmh 29.77 in1008.1 mb 0.00 in0.0 mm 0.00 in0.0 mm 0.00 in0.0 mm
10:58 AM 86.4°F30.2°C 73.7°F23.2°C 66% 2.0 mph W3.2 kmh W 4.5 mph7.2 kmh 29.77 in1008.1 mb 0.00 in0.0 mm 0.00 in0.0 mm 0.00 in0.0 mm
11:03 AM 86.5°F30.3°C 74.3°F23.5°C 67% 3.0 mph N4.8 kmh N 4.5 mph7.2 kmh 29.77 in1008.1 mb 0.00 in0.0 mm 0.00 in0.0 mm 0.00 in0.0 mm
11:08 AM 86.7°F30.4°C 74.0°F23.3°C 66% 1.9 mph E3.1 kmh E 4.5 mph7.2 kmh 29.77 in1008.1 mb 0.00 in0.0 mm 0.00 in0.0 mm 0.00 in0.0 mm
11:14 AM 87.1°F30.6°C 74.3°F23.5°C 66% 2.1 mph ESE3.4 kmh ESE 3.8 mph6.1 kmh 29.76 in1007.8 mb 0.00 in0.0 mm 0.00 in0.0 mm 0.00 in0.0 mm
11:19 AM 87.6°F30.9°C 74.8°F23.8°C 66% 1.5 mph SE2.4 kmh SE 6.0 mph9.7 kmh 29.76 in1007.8 mb 0.00 in0.0 mm 0.00 in0.0 mm 0.00 in0.0 mm
11:23 AM 87.8°F31.0°C 74.6°F23.7°C 65% 2.3 mph WSW3.7 kmh WSW 6.0 mph9.7 kmh 29.76 in1007.8 mb 0.00 in0.0 mm 0.00 in0.0 mm 0.00 in0.0 mm
11:29 AM 88.0°F31.1°C 74.3°F23.5°C 64% 4.1 mph WNW6.6 kmh WNW 5.1 mph8.2 kmh 29.76 in1007.8 mb 0.00 in0.0 mm 0.00 in0.0 mm 0.00 in0.0 mm
11:34 AM 88.3°F31.3°C 74.6°F23.7°C 64% 3.5 mph SSE5.6 kmh SSE 7.4 mph11.9 kmh 29.77 in1008.1 mb 0.00 in0.0 mm 0.00 in0.0 mm 0.00 in0.0 mm
11:39 AM 88.3°F31.3°C 73.7°F23.2°C 62% 3.4 mph SW5.5 kmh SW 7.4 mph11.9 kmh 29.76 in1007.8 mb 0.00 in0.0 mm 0.00 in0.0 mm 0.00 in0.0 mm
11:44 AM 88.5°F31.4°C 73.9°F23.3°C 62% 4.2 mph SW6.8 kmh SW 6.7 mph10.8 kmh 29.76 in1007.8 mb 0.00 in0.0 mm 0.00 in0.0 mm 0.00 in0.0 mm
11:49 AM 88.9°F31.6°C 73.7°F23.2°C 61% 3.4 mph WSW5.5 kmh WSW 10.5 mph16.9 kmh 29.76 in1007.8 mb 0.00 in0.0 mm 0.00 in0.0 mm 0.00 in0.0 mm
11:54 AM 89.1°F31.7°C 73.9°F23.3°C 61% 5.2 mph WSW8.4 kmh WSW 12.8 mph20.6 kmh 29.76 in1007.8 mb 0.00 in0.0 mm 0.00 in0.0 mm 0.00 in0.0 mm
11:59 AM 89.1°F31.7°C 74.4°F23.6°C 62% 3.1 mph SSW5.0 kmh SSW 12.8 mph20.6 kmh 29.75 in1007.5 mb 0.00 in0.0 mm 0.00 in0.0 mm 0.00 in0.0 mm
12:04 PM 88.9°F31.6°C 74.7°F23.7°C 63% 5.2 mph SW8.4 kmh SW 9.8 mph15.8 kmh 29.75 in1007.5 mb 0.00 in0.0 mm 0.00 in0.0 mm 0.00 in0.0 mm
12:09 PM 88.9°F31.6°C 74.7°F23.7°C 63% 2.3 mph S3.7 kmh S 9.8 mph15.8 kmh 29.75 in1007.5 mb 0.00 in0.0 mm 0.00 in0.0 mm 0.00 in0.0 mm
12:14 PM 88.7°F31.5°C 74.5°F23.6°C 63% 3.7 mph SW6.0 kmh SW 8.1 mph13.0 kmh 29.75 in1007.5 mb 0.00 in0.0 mm 0.00 in0.0 mm 0.00 in0.0 mm
12:19 PM 88.9°F31.6°C 74.7°F23.7°C 63% 3.0 mph SW4.8 kmh SW 8.5 mph13.7 kmh 29.75 in1007.5 mb 0.00 in0.0 mm 0.00 in0.0 mm 0.00 in0.0 mm
12:24 PM 89.2°F31.8°C 75.0°F23.9°C 63% 2.9 mph SW4.7 kmh SW 8.5 mph13.7 kmh 29.75 in1007.5 mb 0.00 in0.0 mm 0.00 in0.0 mm 0.00 in0.0 mm
12:29 PM 89.1°F31.7°C 74.8°F23.8°C 63% 3.3 mph SE5.3 kmh SE 7.8 mph12.6 kmh 29.74 in1007.1 mb 0.00 in0.0 mm 0.00 in0.0 mm 0.00 in0.0 mm
12:34 PM 89.2°F31.8°C 75.0°F23.9°C 63% 3.9 mph SW6.3 kmh SW 9.2 mph14.8 kmh 29.74 in1007.1 mb 0.00 in0.0 mm 0.00 in0.0 mm 0.00 in0.0 mm
12:39 PM 89.2°F31.8°C 75.0°F23.9°C 63% 4.0 mph SW6.4 kmh SW 9.2 mph14.8 kmh 29.74 in1007.1 mb 0.00 in0.0 mm 0.00 in0.0 mm 0.00 in0.0 mm
12:44 PM 89.4°F31.9°C 75.2°F24.0°C 63% 3.8 mph SE6.1 kmh SE 8.7 mph14.0 kmh 29.73 in1006.8 mb 0.00 in0.0 mm 0.00 in0.0 mm 0.00 in0.0 mm
12:49 PM 89.4°F31.9°C 74.7°F23.7°C 62% 3.2 mph SW5.1 kmh SW 6.9 mph11.1 kmh 29.73 in1006.8 mb 0.00 in0.0 mm 0.00 in0.0 mm 0.00 in0.0 mm
12:54 PM 89.8°F32.1°C 74.6°F23.7°C 61% 2.7 mph SW4.3 kmh SW 6.3 mph10.1 kmh 29.73 in1006.8 mb 0.00 in0.0 mm 0.00 in0.0 mm 0.00 in0.0 mm
12:59 PM 89.8°F32.1°C 74.6°F23.7°C 61% 4.3 mph SE6.9 kmh SE 8.3 mph13.4 kmh 29.73 in1006.8 mb 0.00 in0.0 mm 0.00 in0.0 mm 0.00 in0.0 mm
01:04 PM 89.8°F32.1°C 75.0°F23.9°C 62% 2.5 mph SE4.0 kmh SE 8.3 mph13.4 kmh 29.72 in1006.4 mb 0.00 in0.0 mm 0.00 in0.0 mm 0.00 in0.0 mm
01:09 PM 90.0°F32.2°C 75.2°F24.0°C 62% 6.7 mph SW10.8 kmh SW 10.1 mph16.3 kmh 29.72 in1006.4 mb 0.00 in0.0 mm 0.00 in0.0 mm 0.00 in0.0 mm
01:14 PM 90.0°F32.2°C 74.7°F23.7°C 61% 3.1 mph SW5.0 kmh SW 10.1 mph16.3 kmh 29.72 in1006.4 mb 0.00 in0.0 mm 0.00 in0.0 mm 0.00 in0.0 mm
01:19 PM 90.1°F32.3°C 74.9°F23.8°C 61% 3.5 mph SE5.6 kmh SE 8.7 mph14.0 kmh 29.72 in1006.4 mb 0.00 in0.0 mm 0.00 in0.0 mm 0.00 in0.0 mm
01:24 PM 89.8°F32.1°C 74.6°F23.7°C 61% 5.2 mph SE8.4 kmh SE 10.1 mph16.3 kmh 29.71 in1006.1 mb 0.00 in0.0 mm 0.00 in0.0 mm 0.00 in0.0 mm
01:29 PM 89.6°F32.0°C 74.4°F23.6°C 61% 4.2 mph SE6.8 kmh SE 10.1 mph16.3 kmh 29.71 in1006.1 mb 0.00 in0.0 mm 0.00 in0.0 mm 0.00 in0.0 mm
01:34 PM 89.8°F32.1°C 75.0°F23.9°C 62% 3.8 mph SW6.1 kmh SW 8.3 mph13.4 kmh 29.70 in1005.8 mb 0.00 in0.0 mm 0.00 in0.0 mm 0.00 in0.0 mm
01:39 PM 89.8°F32.1°C 74.6°F23.7°C 61% 3.5 mph SSW5.6 kmh SSW 6.7 mph10.8 kmh 29.70 in1005.8 mb 0.00 in0.0 mm 0.00 in0.0 mm 0.00 in0.0 mm
01:45 PM 90.0°F32.2°C 74.7°F23.7°C 61% 2.7 mph SSE4.3 kmh SSE 6.0 mph9.7 kmh 29.70 in1005.8 mb 0.00 in0.0 mm 0.00 in0.0 mm 0.00 in0.0 mm
01:50 PM 89.8°F32.1°C 74.6°F23.7°C 61% 4.3 mph SE6.9 kmh SE 11.6 mph18.7 kmh 29.70 in1005.8 mb 0.00 in0.0 mm 0.00 in0.0 mm 0.00 in0.0 mm
01:55 PM 89.8°F32.1°C 75.0°F23.9°C 62% 4.0 mph SW6.4 kmh SW 11.6 mph18.7 kmh 29.70 in1005.8 mb 0.00 in0.0 mm 0.00 in0.0 mm 0.00 in0.0 mm
02:00 PM 90.1°F32.3°C 75.4°F24.1°C 62% 3.8 mph SW6.1 kmh SW 8.5 mph13.7 kmh 29.69 in1005.4 mb 0.00 in0.0 mm 0.00 in0.0 mm 0.00 in0.0 mm
02:05 PM 90.3°F32.4°C 75.1°F23.9°C 61% 4.1 mph SW6.6 kmh SW 8.9 mph14.3 kmh 29.69 in1005.4 mb 0.00 in0.0 mm 0.00 in0.0 mm 0.00 in0.0 mm
02:10 PM 90.3°F32.4°C 75.1°F23.9°C 61% 2.7 mph SE4.3 kmh SE 8.9 mph14.3 kmh 29.69 in1005.4 mb 0.00 in0.0 mm 0.00 in0.0 mm 0.00 in0.0 mm
02:15 PM 90.3°F32.4°C 75.1°F23.9°C 61% 3.1 mph SSE5.0 kmh SSE 8.5 mph13.7 kmh 29.69 in1005.4 mb 0.00 in0.0 mm 0.00 in0.0 mm 0.00 in0.0 mm
02:20 PM 90.3°F32.4°C 75.1°F23.9°C 61% 5.2 mph SSW8.4 kmh SSW 8.5 mph13.7 kmh 29.68 in1005.1 mb 0.00 in0.0 mm 0.00 in0.0 mm 0.00 in0.0 mm
02:25 PM 90.3°F32.4°C 75.1°F23.9°C 61% 5.8 mph SW9.3 kmh SW 10.3 mph16.6 kmh 29.68 in1005.1 mb 0.00 in0.0 mm 0.00 in0.0 mm 0.00 in0.0 mm
02:30 PM 90.7°F32.6°C 74.9°F23.8°C 60% 5.6 mph SW9.0 kmh SW 10.3 mph16.6 kmh 29.67 in1004.7 mb 0.00 in0.0 mm 0.00 in0.0 mm 0.00 in0.0 mm
02:35 PM 90.9°F32.7°C 74.5°F23.6°C 59% 4.7 mph SW7.6 kmh SW 10.5 mph16.9 kmh 29.67 in1004.7 mb 0.00 in0.0 mm 0.00 in0.0 mm 0.00 in0.0 mm
02:40 PM 91.2°F32.9°C 74.9°F23.8°C 59% 6.4 mph SSW10.3 kmh SSW 10.5 mph16.9 kmh 29.67 in1004.7 mb 0.00 in0.0 mm 0.00 in0.0 mm 0.00 in0.0 mm
02:45 PM 91.2°F32.9°C 74.3°F23.5°C 58% 3.4 mph SSW5.5 kmh SSW 9.6 mph15.4 kmh 29.66 in1004.4 mb 0.00 in0.0 mm 0.00 in0.0 mm 0.00 in0.0 mm
02:50 PM 91.2°F32.9°C 74.3°F23.5°C 58% 4.2 mph SW6.8 kmh SW 8.7 mph14.0 kmh 29.66 in1004.4 mb 0.00 in0.0 mm 0.00 in0.0 mm 0.00 in0.0 mm
02:55 PM 91.6°F33.1°C 74.6°F23.7°C 58% 5.5 mph S8.9 kmh S 11.4 mph18.3 kmh 29.66 in1004.4 mb 0.00 in0.0 mm 0.00 in0.0 mm 0.00 in0.0 mm
03:00 PM 91.8°F33.2°C 74.3°F23.5°C 57% 2.9 mph WSW4.7 kmh WSW 11.6 mph18.7 kmh 29.66 in1004.4 mb 0.00 in0.0 mm 0.00 in0.0 mm 0.00 in0.0 mm
03:05 PM 91.9°F33.3°C 74.5°F23.6°C 57% 3.3 mph SW5.3 kmh SW 11.6 mph18.7 kmh 29.66 in1004.4 mb 0.00 in0.0 mm 0.00 in0.0 mm 0.00 in0.0 mm
03:10 PM 91.9°F33.3°C 73.9°F23.3°C 56% 4.4 mph SW7.1 kmh SW 8.5 mph13.7 kmh 29.66 in1004.4 mb 0.00 in0.0 mm 0.00 in0.0 mm 0.00 in0.0 mm
03:15 PM 92.1°F33.4°C 74.1°F23.4°C 56% 6.6 mph WSW10.6 kmh WSW 11.2 mph18.0 kmh 29.66 in1004.4 mb 0.00 in0.0 mm 0.00 in0.0 mm 0.00 in0.0 mm
03:20 PM 92.3°F33.5°C 74.3°F23.5°C 56% 3.5 mph WSW5.6 kmh WSW 11.9 mph19.2 kmh 29.65 in1004.1 mb 0.00 in0.0 mm 0.00 in0.0 mm 0.00 in0.0 mm
03:25 PM 92.1°F33.4°C 74.1°F23.4°C 56% 3.0 mph SW4.8 kmh SW 11.9 mph19.2 kmh 29.65 in1004.1 mb 0.00 in0.0 mm 0.00 in0.0 mm 0.00 in0.0 mm
03:30 PM 92.1°F33.4°C 74.1°F23.4°C 56% 4.2 mph SW6.8 kmh SW 9.8 mph15.8 kmh 29.65 in1004.1 mb 0.00 in0.0 mm 0.00 in0.0 mm 0.00 in0.0 mm
03:35 PM 91.9°F33.3°C 73.9°F23.3°C 56% 4.4 mph SW7.1 kmh SW 9.8 mph15.8 kmh 29.65 in1004.1 mb 0.00 in0.0 mm 0.00 in0.0 mm 0.00 in0.0 mm
03:40 PM 91.9°F33.3°C 74.5°F23.6°C 57% 2.5 mph WSW4.0 kmh WSW 9.4 mph15.1 kmh 29.65 in1004.1 mb 0.00 in0.0 mm 0.00 in0.0 mm 0.00 in0.0 mm
03:45 PM 92.1°F33.4°C 74.6°F23.7°C 57% 2.6 mph WSW4.2 kmh WSW 9.4 mph15.1 kmh 29.65 in1004.1 mb 0.00 in0.0 mm 0.00 in0.0 mm 0.00 in0.0 mm
03:50 PM 91.9°F33.3°C 73.9°F23.3°C 56% 3.8 mph SW6.1 kmh SW 6.9 mph11.1 kmh 29.64 in1003.7 mb 0.00 in0.0 mm 0.00 in0.0 mm 0.00 in0.0 mm
03:55 PM 91.8°F33.2°C 74.3°F23.5°C 57% 2.2 mph SW3.5 kmh SW 6.9 mph11.1 kmh 29.64 in1003.7 mb 0.00 in0.0 mm 0.00 in0.0 mm 0.00 in0.0 mm
04:01 PM 91.8°F33.2°C 73.7°F23.2°C 56% 6.4 mph SW10.3 kmh SW 10.5 mph16.9 kmh 29.64 in1003.7 mb 0.00 in0.0 mm 0.00 in0.0 mm 0.00 in0.0 mm
04:06 PM 91.8°F33.2°C 74.8°F23.8°C 58% 4.6 mph WSW7.4 kmh WSW 10.5 mph16.9 kmh 29.64 in1003.7 mb 0.00 in0.0 mm 0.00 in0.0 mm 0.00 in0.0 mm
04:11 PM 91.9°F33.3°C 75.5°F24.2°C 59% 4.2 mph W6.8 kmh W 10.1 mph16.3 kmh 29.64 in1003.7 mb 0.00 in0.0 mm 0.00 in0.0 mm 0.00 in0.0 mm
04:15 PM 91.9°F33.3°C 75.0°F23.9°C 58% 3.2 mph SW5.1 kmh SW 11.0 mph17.7 kmh 29.63 in1003.4 mb 0.00 in0.0 mm 0.00 in0.0 mm 0.00 in0.0 mm
04:20 PM 91.9°F33.3°C 74.5°F23.6°C 57% 3.9 mph SW6.3 kmh SW 11.0 mph17.7 kmh 29.63 in1003.4 mb 0.00 in0.0 mm 0.00 in0.0 mm 0.00 in0.0 mm
04:26 PM 91.9°F33.3°C 74.5°F23.6°C 57% 3.3 mph SW5.3 kmh SW 9.4 mph15.1 kmh 29.63 in1003.4 mb 0.00 in0.0 mm 0.00 in0.0 mm 0.00 in0.0 mm
04:31 PM 91.8°F33.2°C 73.7°F23.2°C 56% 2.8 mph SW4.5 kmh SW 8.9 mph14.3 kmh 29.63 in1003.4 mb 0.00 in0.0 mm 0.00 in0.0 mm 0.00 in0.0 mm
04:36 PM 91.8°F33.2°C 73.7°F23.2°C 56% 2.9 mph WSW4.7 kmh WSW 6.5 mph10.5 kmh 29.63 in1003.4 mb 0.00 in0.0 mm 0.00 in0.0 mm 0.00 in0.0 mm
04:41 PM 91.8°F33.2°C 74.3°F23.5°C 57% 3.1 mph SW5.0 kmh SW 7.6 mph12.2 kmh 29.63 in1003.4 mb 0.00 in0.0 mm 0.00 in0.0 mm 0.00 in0.0 mm
04:46 PM 91.8°F33.2°C 74.3°F23.5°C 57% 3.0 mph NW4.8 kmh NW 7.6 mph12.2 kmh 29.63 in1003.4 mb 0.00 in0.0 mm 0.00 in0.0 mm 0.00 in0.0 mm
04:51 PM 91.9°F33.3°C 74.5°F23.6°C 57% 2.6 mph WNW4.2 kmh WNW 6.7 mph10.8 kmh 29.63 in1003.4 mb 0.00 in0.0 mm 0.00 in0.0 mm 0.00 in0.0 mm
04:56 PM 91.9°F33.3°C 73.9°F23.3°C 56% 6.6 mph SW10.6 kmh SW 8.7 mph14.0 kmh 29.63 in1003.4 mb 0.00 in0.0 mm 0.00 in0.0 mm 0.00 in0.0 mm
05:01 PM 91.9°F33.3°C 73.9°F23.3°C 56% 4.3 mph WSW6.9 kmh WSW 8.7 mph14.0 kmh 29.63 in1003.4 mb 0.00 in0.0 mm 0.00 in0.0 mm 0.00 in0.0 mm
05:06 PM 91.8°F33.2°C 73.2°F22.9°C 55% 2.6 mph SW4.2 kmh SW 8.7 mph14.0 kmh 29.63 in1003.4 mb 0.00 in0.0 mm 0.00 in0.0 mm 0.00 in0.0 mm
05:11 PM 91.9°F33.3°C 73.4°F23.0°C 55% 4.6 mph SW7.4 kmh SW 6.7 mph10.8 kmh 29.63 in1003.4 mb 0.00 in0.0 mm 0.00 in0.0 mm 0.00 in0.0 mm
05:16 PM 91.9°F33.3°C 73.4°F23.0°C 55% 5.3 mph SW8.5 kmh SW 9.4 mph15.1 kmh 29.63 in1003.4 mb 0.00 in0.0 mm 0.00 in0.0 mm 0.00 in0.0 mm
05:21 PM 91.9°F33.3°C 73.9°F23.3°C 56% 3.6 mph SW5.8 kmh SW 9.4 mph15.1 kmh 29.63 in1003.4 mb 0.00 in0.0 mm 0.00 in0.0 mm 0.00 in0.0 mm
05:26 PM 91.8°F33.2°C 73.7°F23.2°C 56% 2.9 mph SW4.7 kmh SW 6.0 mph9.7 kmh 29.63 in1003.4 mb 0.00 in0.0 mm 0.00 in0.0 mm 0.00 in0.0 mm
05:31 PM 91.8°F33.2°C 73.7°F23.2°C 56% 2.1 mph WSW3.4 kmh WSW 5.4 mph8.7 kmh 29.63 in1003.4 mb 0.00 in0.0 mm 0.00 in0.0 mm 0.00 in0.0 mm
05:36 PM 91.9°F33.3°C 73.9°F23.3°C 56% 3.0 mph SW4.8 kmh SW 4.9 mph7.9 kmh 29.64 in1003.7 mb 0.00 in0.0 mm 0.00 in0.0 mm 0.00 in0.0 mm
05:41 PM 91.9°F33.3°C 74.5°F23.6°C 57% 3.1 mph WSW5.0 kmh WSW 4.9 mph7.9 kmh 29.63 in1003.4 mb 0.00 in0.0 mm 0.00 in0.0 mm 0.00 in0.0 mm
05:46 PM 91.8°F33.2°C 73.7°F23.2°C 56% 3.3 mph SW5.3 kmh SW 6.5 mph10.5 kmh 29.64 in1003.7 mb 0.00 in0.0 mm 0.00 in0.0 mm 0.00 in0.0 mm
05:51 PM 91.6°F33.1°C 73.6°F23.1°C 56% 2.8 mph SW4.5 kmh SW 7.4 mph11.9 kmh 29.64 in1003.7 mb 0.00 in0.0 mm 0.00 in0.0 mm 0.00 in0.0 mm
05:56 PM 91.4°F33.0°C 73.9°F23.3°C 57% 3.6 mph SE5.8 kmh SE 7.4 mph11.9 kmh 29.64 in1003.7 mb 0.00 in0.0 mm 0.00 in0.0 mm 0.00 in0.0 mm
06:01 PM 91.2°F32.9°C 73.8°F23.2°C 57% 3.2 mph SW5.1 kmh SW 8.9 mph14.3 kmh 29.64 in1003.7 mb 0.00 in0.0 mm 0.00 in0.0 mm 0.00 in0.0 mm
06:06 PM 91.0°F32.8°C 74.2°F23.4°C 58% 3.5 mph SSW5.6 kmh SSW 8.9 mph14.3 kmh 29.64 in1003.7 mb 0.00 in0.0 mm 0.00 in0.0 mm 0.00 in0.0 mm
06:11 PM 90.7°F32.6°C 73.8°F23.2°C 58% 5.2 mph WSW8.4 kmh WSW 7.6 mph12.2 kmh 29.64 in1003.7 mb 0.00 in0.0 mm 0.00 in0.0 mm 0.00 in0.0 mm
06:16 PM 90.7°F32.6°C 73.8°F23.2°C 58% 4.0 mph SW6.4 kmh SW 7.6 mph12.2 kmh 29.65 in1004.1 mb 0.00 in0.0 mm 0.00 in0.0 mm 0.00 in0.0 mm
06:21 PM 90.5°F32.5°C 74.2°F23.4°C 59% 4.0 mph SW6.4 kmh SW 8.5 mph13.7 kmh 29.64 in1003.7 mb 0.00 in0.0 mm 0.00 in0.0 mm 0.00 in0.0 mm
06:26 PM 90.3°F32.4°C 73.5°F23.1°C 58% 5.5 mph SW8.9 kmh SW 10.1 mph16.3 kmh 29.65 in1004.1 mb 0.00 in0.0 mm 0.00 in0.0 mm 0.00 in0.0 mm
06:31 PM 90.1°F32.3°C 73.9°F23.3°C 59% 3.1 mph SW5.0 kmh SW 10.1 mph16.3 kmh 29.65 in1004.1 mb 0.00 in0.0 mm 0.00 in0.0 mm 0.00 in0.0 mm
06:37 PM 90.1°F32.3°C 73.9°F23.3°C 59% 4.0 mph SW6.4 kmh SW 8.5 mph13.7 kmh 29.65 in1004.1 mb 0.00 in0.0 mm 0.00 in0.0 mm 0.00 in0.0 mm
06:42 PM 90.0°F32.2°C 73.7°F23.2°C 59% 4.1 mph SW6.6 kmh SW 10.5 mph16.9 kmh 29.65 in1004.1 mb 0.00 in0.0 mm 0.00 in0.0 mm 0.00 in0.0 mm
06:47 PM 90.0°F32.2°C 73.7°F23.2°C 59% 4.5 mph SW7.2 kmh SW 10.5 mph16.9 kmh 29.66 in1004.4 mb 0.00 in0.0 mm 0.00 in0.0 mm 0.00 in0.0 mm
06:52 PM 89.8°F32.1°C 73.6°F23.1°C 59% 5.1 mph SW8.2 kmh SW 10.5 mph16.9 kmh 29.66 in1004.4 mb 0.00 in0.0 mm 0.00 in0.0 mm 0.00 in0.0 mm
06:57 PM 89.4°F31.9°C 73.8°F23.2°C 60% 5.4 mph SW8.7 kmh SW 10.5 mph16.9 kmh 29.66 in1004.4 mb 0.00 in0.0 mm 0.00 in0.0 mm 0.00 in0.0 mm
07:02 PM 89.2°F31.8°C 74.1°F23.4°C 61% 3.1 mph SW5.0 kmh SW 8.3 mph13.4 kmh 29.66 in1004.4 mb 0.00 in0.0 mm 0.00 in0.0 mm 0.00 in0.0 mm
07:07 PM 88.7°F31.5°C 73.6°F23.1°C 61% 2.5 mph SW4.0 kmh SW 7.8 mph12.6 kmh 29.66 in1004.4 mb 0.00 in0.0 mm 0.00 in0.0 mm 0.00 in0.0 mm
07:12 PM 88.5°F31.4°C 73.9°F23.3°C 62% 2.4 mph SW3.9 kmh SW 6.7 mph10.8 kmh 29.67 in1004.7 mb 0.00 in0.0 mm 0.00 in0.0 mm 0.00 in0.0 mm
07:17 PM 88.3°F31.3°C 73.7°F23.2°C 62% 3.2 mph WSW5.1 kmh WSW 6.7 mph10.8 kmh 29.67 in1004.7 mb 0.00 in0.0 mm 0.00 in0.0 mm 0.00 in0.0 mm
07:22 PM 88.5°F31.4°C 73.9°F23.3°C 62% 3.3 mph SW5.3 kmh SW 10.3 mph16.6 kmh 29.67 in1004.7 mb 0.00 in0.0 mm 0.00 in0.0 mm 0.00 in0.0 mm
07:27 PM 88.3°F31.3°C 73.7°F23.2°C 62% 2.4 mph WSW3.9 kmh WSW 10.3 mph16.6 kmh 29.67 in1004.7 mb 0.00 in0.0 mm 0.00 in0.0 mm 0.00 in0.0 mm
07:32 PM 88.0°F31.1°C 73.4°F23.0°C 62% 1.9 mph SW3.1 kmh SW 6.0 mph9.7 kmh 29.67 in1004.7 mb 0.00 in0.0 mm 0.00 in0.0 mm 0.00 in0.0 mm
07:37 PM 88.0°F31.1°C 73.8°F23.2°C 63% 1.6 mph WSW2.6 kmh WSW 6.0 mph9.7 kmh 29.68 in1005.1 mb 0.00 in0.0 mm 0.00 in0.0 mm 0.00 in0.0 mm
07:42 PM 87.6°F30.9°C 73.9°F23.3°C 64% 1.6 mph WSW2.6 kmh WSW 6.0 mph9.7 kmh 29.68 in1005.1 mb 0.00 in0.0 mm 0.00 in0.0 mm 0.00 in0.0 mm
07:47 PM 87.6°F30.9°C 73.9°F23.3°C 64% 2.8 mph WSW4.5 kmh WSW 3.8 mph6.1 kmh 29.68 in1005.1 mb 0.00 in0.0 mm 0.00 in0.0 mm 0.00 in0.0 mm
07:52 PM 87.4°F30.8°C 73.8°F23.2°C 64% 2.2 mph SW3.5 kmh SW 3.8 mph6.1 kmh 29.69 in1005.4 mb 0.00 in0.0 mm 0.00 in0.0 mm 0.00 in0.0 mm
07:57 PM 87.3°F30.7°C 74.0°F23.3°C 65% 3.0 mph WSW4.8 kmh WSW 3.8 mph6.1 kmh 29.69 in1005.4 mb 0.00 in0.0 mm 0.00 in0.0 mm 0.00 in0.0 mm
08:02 PM 87.1°F30.6°C 74.3°F23.5°C 66% Calm Calm 3.8 mph6.1 kmh 29.69 in1005.4 mb 0.00 in0.0 mm 0.00 in0.0 mm 0.00 in0.0 mm
08:07 PM 87.1°F30.6°C 74.3°F23.5°C 66% 2.8 mph SW4.5 kmh SW 4.0 mph6.4 kmh 29.69 in1005.4 mb 0.00 in0.0 mm 0.00 in0.0 mm 0.00 in0.0 mm
08:12 PM 86.9°F30.5°C 74.2°F23.4°C 66% 2.6 mph SW4.2 kmh SW 5.1 mph8.2 kmh 29.69 in1005.4 mb 0.00 in0.0 mm 0.00 in0.0 mm 0.00 in0.0 mm
08:17 PM 86.7°F30.4°C 74.0°F23.3°C 66% 3.6 mph SW5.8 kmh SW 5.1 mph8.2 kmh 29.69 in1005.4 mb 0.00 in0.0 mm 0.00 in0.0 mm 0.00 in0.0 mm
08:22 PM 86.9°F30.5°C 74.2°F23.4°C 66% 4.3 mph SW6.9 kmh SW 7.8 mph12.6 kmh 29.70 in1005.8 mb 0.00 in0.0 mm 0.00 in0.0 mm 0.00 in0.0 mm
08:27 PM 87.1°F30.6°C 74.3°F23.5°C 66% 3.2 mph SW5.1 kmh SW 7.8 mph12.6 kmh 29.69 in1005.4 mb 0.00 in0.0 mm 0.00 in0.0 mm 0.00 in0.0 mm
08:33 PM 87.3°F30.7°C 74.0°F23.3°C 65% 2.6 mph SW4.2 kmh SW 6.0 mph9.7 kmh 29.70 in1005.8 mb 0.00 in0.0 mm 0.00 in0.0 mm 0.00 in0.0 mm
08:37 PM 87.3°F30.7°C 74.0°F23.3°C 65% 3.3 mph WSW5.3 kmh WSW 6.5 mph10.5 kmh 29.70 in1005.8 mb 0.00 in0.0 mm 0.00 in0.0 mm 0.00 in0.0 mm
08:43 PM 87.1°F30.6°C 73.9°F23.3°C 65% 3.0 mph WSW4.8 kmh WSW 7.2 mph11.6 kmh 29.70 in1005.8 mb 0.00 in0.0 mm 0.00 in0.0 mm 0.00 in0.0 mm
08:48 PM 87.4°F30.8°C 74.2°F23.4°C 65% 3.4 mph SW5.5 kmh SW 7.2 mph11.6 kmh 29.70 in1005.8 mb 0.00 in0.0 mm 0.00 in0.0 mm 0.00 in0.0 mm
08:53 PM 87.1°F30.6°C 73.9°F23.3°C 65% 1.8 mph SW2.9 kmh SW 6.0 mph9.7 kmh 29.70 in1005.8 mb 0.00 in0.0 mm 0.00 in0.0 mm 0.00 in0.0 mm
08:58 PM 86.9°F30.5°C 73.7°F23.2°C 65% 1.9 mph S3.1 kmh S 3.6 mph5.8 kmh 29.70 in1005.8 mb 0.00 in0.0 mm 0.00 in0.0 mm 0.00 in0.0 mm
09:03 PM 86.5°F30.3°C 73.8°F23.2°C 66% 1.7 mph SW2.7 kmh SW 2.9 mph4.7 kmh 29.71 in1006.1 mb 0.00 in0.0 mm 0.00 in0.0 mm 0.00 in0.0 mm
09:08 PM 86.5°F30.3°C 73.8°F23.2°C 66% 2.4 mph SSE3.9 kmh SSE 3.4 mph5.5 kmh 29.71 in1006.1 mb 0.00 in0.0 mm 0.00 in0.0 mm 0.00 in0.0 mm
09:13 PM 86.7°F30.4°C 74.0°F23.3°C 66% 1.8 mph SSW2.9 kmh SSW 3.4 mph5.5 kmh 29.71 in1006.1 mb 0.00 in0.0 mm 0.00 in0.0 mm 0.00 in0.0 mm
09:18 PM 86.5°F30.3°C 73.8°F23.2°C 66% 1.8 mph WSW2.9 kmh WSW 2.9 mph4.7 kmh 29.72 in1006.4 mb 0.00 in0.0 mm 0.00 in0.0 mm 0.00 in0.0 mm
09:23 PM 86.4°F30.2°C 73.7°F23.2°C 66% 1.7 mph SW2.7 kmh SW 2.2 mph3.5 kmh 29.72 in1006.4 mb 0.00 in0.0 mm 0.00 in0.0 mm 0.00 in0.0 mm
09:28 PM 86.2°F30.1°C 73.5°F23.1°C 66% 1.8 mph SW2.9 kmh SW 2.2 mph3.5 kmh 29.72 in1006.4 mb 0.00 in0.0 mm 0.00 in0.0 mm 0.00 in0.0 mm
09:33 PM 86.0°F30.0°C 73.8°F23.2°C 67% 0.9 mph WSW1.4 kmh WSW 2.7 mph4.3 kmh 29.72 in1006.4 mb 0.00 in0.0 mm 0.00 in0.0 mm 0.00 in0.0 mm
09:38 PM 85.8°F29.9°C 73.6°F23.1°C 67% 1.5 mph SW2.4 kmh SW 2.7 mph4.3 kmh 29.73 in1006.8 mb 0.00 in0.0 mm 0.00 in0.0 mm 0.00 in0.0 mm
09:43 PM 85.8°F29.9°C 73.6°F23.1°C 67% 2.3 mph SW3.7 kmh SW 4.7 mph7.6 kmh 29.73 in1006.8 mb 0.00 in0.0 mm 0.00 in0.0 mm 0.00 in0.0 mm
09:48 PM 86.0°F30.0°C 73.8°F23.2°C 67% 2.3 mph SW3.7 kmh SW 4.7 mph7.6 kmh 29.73 in1006.8 mb 0.00 in0.0 mm 0.00 in0.0 mm 0.00 in0.0 mm
09:53 PM 86.2°F30.1°C 73.5°F23.1°C 66% 3.0 mph SW4.8 kmh SW 5.6 mph9.0 kmh 29.73 in1006.8 mb 0.00 in0.0 mm 0.00 in0.0 mm 0.00 in0.0 mm
09:58 PM 86.2°F30.1°C 73.5°F23.1°C 66% 3.0 mph WSW4.8 kmh WSW 5.6 mph9.0 kmh 29.74 in1007.1 mb 0.00 in0.0 mm 0.00 in0.0 mm 0.00 in0.0 mm
10:03 PM 86.4°F30.2°C 73.2°F22.9°C 65% 3.1 mph SW5.0 kmh SW 6.9 mph11.1 kmh 29.74 in1007.1 mb 0.00 in0.0 mm 0.00 in0.0 mm 0.00 in0.0 mm
10:08 PM 86.2°F30.1°C 73.0°F22.8°C 65% 2.9 mph SW4.7 kmh SW 6.9 mph11.1 kmh 29.74 in1007.1 mb 0.00 in0.0 mm 0.00 in0.0 mm 0.00 in0.0 mm
10:14 PM 86.2°F30.1°C 73.0°F22.8°C 65% 3.4 mph SW5.5 kmh SW 5.6 mph9.0 kmh 29.74 in1007.1 mb 0.00 in0.0 mm 0.00 in0.0 mm 0.00 in0.0 mm
10:19 PM 86.2°F30.1°C 73.0°F22.8°C 65% 2.4 mph WSW3.9 kmh WSW 5.6 mph9.0 kmh 29.74 in1007.1 mb 0.00 in0.0 mm 0.00 in0.0 mm 0.00 in0.0 mm
10:24 PM 86.2°F30.1°C 73.5°F23.1°C 66% 3.3 mph WSW5.3 kmh WSW 5.4 mph8.7 kmh 29.75 in1007.5 mb 0.00 in0.0 mm 0.00 in0.0 mm 0.00 in0.0 mm
10:29 PM 86.0°F30.0°C 73.3°F22.9°C 66% 3.1 mph WSW5.0 kmh WSW 5.1 mph8.2 kmh 29.74 in1007.1 mb 0.00 in0.0 mm 0.00 in0.0 mm 0.00 in0.0 mm
10:34 PM 85.8°F29.9°C 72.7°F22.6°C 65% 3.0 mph SW4.8 kmh SW 5.4 mph8.7 kmh 29.75 in1007.5 mb 0.00 in0.0 mm 0.00 in0.0 mm 0.00 in0.0 mm
10:39 PM 85.8°F29.9°C 73.1°F22.8°C 66% 2.0 mph SW3.2 kmh SW 5.4 mph8.7 kmh 29.75 in1007.5 mb 0.00 in0.0 mm 0.00 in0.0 mm 0.00 in0.0 mm
10:44 PM 85.6°F29.8°C 72.5°F22.5°C 65% 3.8 mph SW6.1 kmh SW 5.1 mph8.2 kmh 29.74 in1007.1 mb 0.00 in0.0 mm 0.00 in0.0 mm 0.00 in0.0 mm
10:49 PM 85.6°F29.8°C 72.5°F22.5°C 65% 3.8 mph SW6.1 kmh SW 6.9 mph11.1 kmh 29.74 in1007.1 mb 0.00 in0.0 mm 0.00 in0.0 mm 0.00 in0.0 mm
10:54 PM 85.6°F29.8°C 72.5°F22.5°C 65% 3.1 mph SW5.0 kmh SW 6.9 mph11.1 kmh 29.74 in1007.1 mb 0.00 in0.0 mm 0.00 in0.0 mm 0.00 in0.0 mm
10:59 PM 85.5°F29.7°C 72.3°F22.4°C 65% 2.7 mph SW4.3 kmh SW 6.9 mph11.1 kmh 29.74 in1007.1 mb 0.00 in0.0 mm 0.00 in0.0 mm 0.00 in0.0 mm
11:04 PM 85.3°F29.6°C 72.2°F22.3°C 65% 3.7 mph SW6.0 kmh SW 6.5 mph10.5 kmh 29.74 in1007.1 mb 0.00 in0.0 mm 0.00 in0.0 mm 0.00 in0.0 mm
11:09 PM 84.9°F29.4°C 71.8°F22.1°C 65% 3.1 mph SW5.0 kmh SW 6.5 mph10.5 kmh 29.74 in1007.1 mb 0.00 in0.0 mm 0.00 in0.0 mm 0.00 in0.0 mm
11:14 PM 84.7°F29.3°C 72.1°F22.3°C 66% 3.5 mph SW5.6 kmh SW 8.1 mph13.0 kmh 29.75 in1007.5 mb 0.00 in0.0 mm 0.00 in0.0 mm 0.00 in0.0 mm
11:19 PM 84.7°F29.3°C 72.1°F22.3°C 66% 3.8 mph SW6.1 kmh SW 8.1 mph13.0 kmh 29.75 in1007.5 mb 0.00 in0.0 mm 0.00 in0.0 mm 0.00 in0.0 mm
11:24 PM 84.4°F29.1°C 71.8°F22.1°C 66% 3.6 mph SSW5.8 kmh SSW 7.6 mph12.2 kmh 29.74 in1007.1 mb 0.00 in0.0 mm 0.00 in0.0 mm 0.00 in0.0 mm
11:29 PM 84.4°F29.1°C 71.8°F22.1°C 66% 2.4 mph S3.9 kmh S 6.0 mph9.7 kmh 29.74 in1007.1 mb 0.00 in0.0 mm 0.00 in0.0 mm 0.00 in0.0 mm
11:34 PM 84.0°F28.9°C 71.4°F21.9°C 66% Calm Calm 3.8 mph6.1 kmh 29.74 in1007.1 mb 0.00 in0.0 mm 0.00 in0.0 mm 0.00 in0.0 mm
11:39 PM 83.8°F28.8°C 71.7°F22.1°C 67% 2.1 mph SW3.4 kmh SW 3.1 mph5.0 kmh 29.74 in1007.1 mb 0.00 in0.0 mm 0.00 in0.0 mm 0.00 in0.0 mm
11:44 PM 83.8°F28.8°C 71.7°F22.1°C 67% 2.5 mph SW4.0 kmh SW 6.5 mph10.5 kmh 29.74 in1007.1 mb 0.00 in0.0 mm 0.00 in0.0 mm 0.00 in0.0 mm
11:49 PM 83.7°F28.7°C 72.0°F22.2°C 68% 1.8 mph SW2.9 kmh SW 6.5 mph10.5 kmh 29.74 in1007.1 mb 0.00 in0.0 mm 0.00 in0.0 mm 0.00 in0.0 mm
11:54 PM 83.5°F28.6°C 71.8°F22.1°C 68% 2.3 mph SW3.7 kmh SW 4.0 mph6.4 kmh 29.74 in1007.1 mb 0.00 in0.0 mm 0.00 in0.0 mm 0.00 in0.0 mm
11:59 PM 83.7°F28.7°C 72.0°F22.2°C 68% 3.0 mph SW4.8 kmh SW 6.3 mph10.1 kmh 29.74 in1007.1 mb 0.00 in0.0 mm 0.00 in0.0 mm 0.00 in0.0 mm